Time;durP1;ratioP1;P1;durP2;ratioP2;P2;SDS_P1;SDS_P2;PMS_P1;PMS_P2;Temp;Humidity;BMP_temperature;BMP_pressure;BME280_temperature;BME280_humidity;BME280_pressure;Samples;Min_cycle;Max_cycle;Signal;HPM_P1;HPM_P2
2022/08/22 00:00:08;;;;;;;10.88;6.88;;;;;16.80;96266.00;;;;8296145;28;20241;-71
2022/08/22 00:04:18;;;;;;;10.63;6.82;;;;;16.80;96266.00;;;;8296872;28;20232;-71
2022/08/22 00:08:57;;;;;;;7.88;6.20;;;;;16.80;96266.00;;;;8294698;28;20640;-71
2022/08/22 00:13:08;;;;;;;7.70;6.85;;;;;16.80;96275.00;;;;8297023;28;20225;-70
2022/08/22 00:17:45;;;;;;;10.85;6.40;;;;;16.90;96268.00;;;;8295813;28;20271;-71
2022/08/22 00:21:53;;;;;;;10.32;7.05;;;;;16.80;96268.00;;;;8296006;28;20591;-70
2022/08/22 00:26:02;;;;;;;12.23;6.30;;;;;16.80;96269.00;;;;8295724;28;20238;-70
2022/08/22 00:30:38;;;;;;;7.25;6.13;;;;;16.70;96265.00;;;;8296071;28;20316;-69
2022/08/22 00:34:47;;;;;;;10.35;6.30;;;;;16.50;96263.00;;;;8295511;28;20232;-70
2022/08/22 00:38:59;;;;;;;7.00;5.97;;;;;16.40;96260.00;;;;8295801;28;20256;-70
2022/08/22 00:43:17;;;;;;;10.13;6.47;;;;;16.30;96264.00;;;;8295839;28;20224;-70
2022/08/22 00:47:35;;;;;;;10.57;6.50;;;;;16.10;96261.00;;;;8295237;28;20309;-70
2022/08/22 00:52:22;;;;;;;10.40;6.43;;;;;16.00;96259.00;;;;8295196;28;20222;-70
2022/08/22 00:57:03;;;;;;;10.32;6.60;;;;;15.90;96267.00;;;;8287118;28;20316;-71
2022/08/22 01:01:09;;;;;;;10.18;6.05;;;;;15.90;96270.00;;;;8245864;28;20301;-70
2022/08/22 01:05:50;;;;;;;12.77;6.30;;;;;15.80;96267.00;;;;8294688;28;20221;-71
2022/08/22 01:10:13;;;;;;;8.10;6.53;;;;;15.80;96266.00;;;;8294600;28;20224;-70
2022/08/22 01:14:29;;;;;;;9.20;6.90;;;;;15.70;96268.00;;;;8295293;28;20304;-71
2022/08/22 01:19:12;;;;;;;9.57;6.80;;;;;15.60;96262.00;;;;8295301;28;20232;-70
2022/08/22 01:23:55;;;;;;;14.93;7.22;;;;;15.50;96259.00;;;;8244179;28;20682;-70
2022/08/22 01:28:24;;;;;;;8.02;6.80;;;;;15.50;96261.00;;;;8294027;28;20308;-70
2022/08/22 01:32:47;;;;;;;12.90;7.18;;;;;15.40;96252.00;;;;8294447;28;20217;-71
2022/08/22 01:37:22;;;;;;;9.57;7.35;;;;;15.30;96257.00;;;;8294613;28;20244;-70
2022/08/22 01:41:50;;;;;;;10.82;7.63;;;;;15.20;96262.00;;;;8293892;28;20304;-71
2022/08/22 01:46:27;;;;;;;9.10;7.47;;;;;15.20;96259.00;;;;8294021;28;20222;-71
2022/08/22 01:50:34;;;;;;;8.98;7.18;;;;;15.30;96261.00;;;;8293910;28;20217;-71
2022/08/22 01:55:08;;;;;;;12.05;7.20;;;;;15.30;96260.00;;;;8293750;28;20228;-71
2022/08/22 01:59:22;;;;;;;9.38;6.57;;;;;15.30;96263.00;;;;8293630;28;20305;-70
2022/08/22 02:03:40;;;;;;;12.00;7.50;;;;;15.30;96260.00;;;;8294194;28;20245;-71
2022/08/22 02:07:48;;;;;;;12.23;8.00;;;;;15.30;96261.00;;;;8292509;28;20309;-72
2022/08/22 02:12:27;;;;;;;13.20;7.15;;;;;15.20;96264.00;;;;8293890;28;20312;-71
2022/08/22 02:16:38;;;;;;;13.57;7.90;;;;;15.20;96260.00;;;;8293151;28;20232;-71
2022/08/22 02:21:08;;;;;;;13.13;7.07;;;;;15.10;96258.00;;;;8293886;28;20301;-71
2022/08/22 02:25:17;;;;;;;13.98;6.70;;;;;15.00;96263.00;;;;8293516;28;20708;-71
2022/08/22 02:29:47;;;;;;;10.85;8.23;;;;;14.90;96264.00;;;;8287303;28;20301;-71
2022/08/22 02:33:56;;;;;;;12.32;8.68;;;;;14.80;96266.00;;;;8293377;28;20317;-71
2022/08/22 02:38:09;;;;;;;10.05;7.38;;;;;14.80;96270.00;;;;8292383;28;20237;-72
2022/08/22 02:42:20;;;;;;;12.63;7.25;;;;;14.70;96269.00;;;;8292896;28;20568;-71
2022/08/22 02:46:29;;;;;;;12.05;8.15;;;;;14.60;96250.00;;;;8285492;28;20228;-71
2022/08/22 02:51:06;;;;;;;10.68;7.18;;;;;14.60;96256.00;;;;8298342;28;20364;-71
2022/08/22 02:55:15;;;;;;;11.73;8.13;;;;;14.50;96249.00;;;;8298607;28;20301;-71
2022/08/22 02:59:31;;;;;;;13.18;7.78;;;;;14.50;96260.00;;;;8298867;28;20217;-72
2022/08/22 03:04:12;;;;;;;14.80;7.68;;;;;14.40;96258.00;;;;8297611;28;20259;-71
2022/08/22 03:08:23;;;;;;;11.50;7.13;;;;;14.40;96253.00;;;;8297252;28;20224;-73
2022/08/22 03:12:57;;;;;;;14.52;8.30;;;;;14.40;96255.00;;;;8298694;28;20221;-73
2022/08/22 03:17:05;;;;;;;13.60;7.13;;;;;14.30;96248.00;;;;8298566;28;20304;-73
2022/08/22 03:21:36;;;;;;;14.80;7.32;;;;;14.30;96253.00;;;;8297784;28;20304;-73
2022/08/22 03:25:47;;;;;;;11.20;7.65;;;;;14.30;96253.00;;;;8298018;28;20312;-73
2022/08/22 03:30:17;;;;;;;9.18;7.60;;;;;14.30;96251.00;;;;8297869;28;20364;-74
2022/08/22 03:34:22;;;;;;;8.95;7.22;;;;;14.20;96257.00;;;;8298286;28;20751;-71
2022/08/22 03:39:03;;;;;;;12.98;7.47;;;;;14.10;96258.00;;;;8298334;28;20227;-71
2022/08/22 03:43:44;;;;;;;14.40;8.00;;;;;14.00;96247.00;;;;8297547;28;20274;-72
2022/08/22 03:48:23;;;;;;;9.32;7.40;;;;;13.90;96253.00;;;;8296902;28;20304;-72
2022/08/22 03:53:07;;;;;;;11.40;7.57;;;;;13.90;96250.00;;;;8297726;28;20304;-73
2022/08/22 03:58:05;;;;;;;16.08;8.13;;;;;13.90;96250.00;;;;8296733;28;20229;-73
2022/08/22 04:02:57;;;;;;;16.35;8.55;;;;;13.80;96257.00;;;;8297322;28;20225;-72
2022/08/22 04:07:45;;;;;;;12.60;7.78;;;;;13.90;96251.00;;;;8132917;29;20674;-73
2022/08/22 04:12:22;;;;;;;9.90;7.43;;;;;13.90;96256.00;;;;8102513;29;20243;-72
2022/08/22 04:21:54;;;;;;;14.77;8.02;;;;;13.80;96266.00;;;;8263845;28;20226;-72
2022/08/22 04:26:22;;;;;;;12.85;7.68;;;;;13.80;96256.00;;;;8252669;28;20305;-73
2022/08/22 04:30:35;;;;;;;11.38;7.97;;;;;13.80;96265.00;;;;8264561;28;20224;-73
2022/08/22 04:35:05;;;;;;;14.05;7.80;;;;;13.70;96264.00;;;;8259090;28;20230;-71
2022/08/22 04:39:40;;;;;;;12.43;8.23;;;;;13.70;96270.00;;;;8264196;28;20300;-75
2022/08/22 04:43:51;;;;;;;13.68;8.52;;;;;13.70;96265.00;;;;8263139;28;20313;-72
2022/08/22 04:48:01;;;;;;;12.95;8.40;;;;;13.80;96266.00;;;;8262986;28;20225;-74
2022/08/22 04:52:33;;;;;;;10.63;7.20;;;;;13.90;96274.00;;;;8258136;28;20308;-73
2022/08/22 04:56:49;;;;;;;11.95;7.57;;;;;13.90;96275.00;;;;8263285;28;20690;-73
2022/08/22 05:01:13;;;;;;;12.65;7.85;;;;;13.90;96270.00;;;;8262234;28;20225;-73
2022/08/22 05:05:21;;;;;;;10.00;7.32;;;;;14.00;96278.00;;;;8262083;28;20608;-73
2022/08/22 05:09:30;;;;;;;11.88;7.60;;;;;14.10;96282.00;;;;8276339;28;20221;-73
2022/08/22 05:13:42;;;;;;;10.88;6.40;;;;;14.20;96280.00;;;;8295612;28;20676;-73
2022/08/22 05:18:13;;;;;;;13.88;8.07;;;;;14.40;96274.00;;;;8295273;28;20224;-73
2022/08/22 05:22:20;;;;;;;11.05;7.72;;;;;14.50;96286.00;;;;8284204;28;20292;-74
2022/08/22 05:26:25;;;;;;;12.15;7.53;;;;;14.60;96277.00;;;;8294069;28;20249;-74
2022/08/22 05:30:31;;;;;;;10.32;7.70;;;;;14.80;96282.00;;;;8293843;28;20232;-74
2022/08/22 05:35:07;;;;;;;14.25;8.13;;;;;14.90;96289.00;;;;8294770;28;20230;-74
2022/08/22 05:39:14;;;;;;;11.13;7.55;;;;;15.10;96287.00;;;;8294124;28;20227;-73
2022/08/22 05:43:20;;;;;;;8.57;7.47;;;;;15.30;96290.00;;;;8294644;28;20587;-73
2022/08/22 05:47:34;;;;;;;12.98;8.43;;;;;15.40;96296.00;;;;8294069;28;20563;-74
2022/08/22 05:51:47;;;;;;;11.10;7.70;;;;;15.60;96299.00;;;;8294991;28;20332;-73
2022/08/22 05:56:00;;;;;;;11.05;7.63;;;;;15.80;96297.00;;;;8295038;28;20308;-73
2022/08/22 06:00:26;;;;;;;12.50;7.75;;;;;16.00;96298.00;;;;8293742;28;20241;-73
2022/08/22 06:04:36;;;;;;;8.57;7.03;;;;;16.20;96309.00;;;;8294829;28;20227;-70
2022/08/22 06:08:44;;;;;;;8.25;6.95;;;;;16.40;96311.00;;;;8294448;28;20249;-70
2022/08/22 06:12:53;;;;;;;10.82;7.25;;;;;16.70;96305.00;;;;8294630;28;20224;-68
2022/08/22 06:17:26;;;;;;;11.38;6.93;;;;;16.90;96308.00;;;;8294978;28;20226;-68
2022/08/22 06:21:36;;;;;;;9.57;7.35;;;;;17.20;96313.00;;;;8300021;28;20249;-68
2022/08/22 06:25:45;;;;;;;8.88;6.97;;;;;17.40;96312.00;;;;8300623;28;20237;-69
2022/08/22 06:30:17;;;;;;;8.57;6.90;;;;;17.70;96315.00;;;;8298292;28;20249;-69
2022/08/22 06:34:53;;;;;;;9.85;7.45;;;;;18.00;96310.00;;;;8299845;28;20639;-69
2022/08/22 06:39:30;;;;;;;8.20;6.35;;;;;18.30;96310.00;;;;8299325;28;20229;-69
2022/08/22 06:44:04;;;;;;;11.20;7.30;;;;;18.70;96313.00;;;;8298532;28;20310;-69
2022/08/22 06:48:38;;;;;;;7.45;6.13;;;;;19.00;96310.00;;;;8298611;28;20218;-70
2022/08/22 06:53:16;;;;;;;7.03;5.93;;;;;19.30;96313.00;;;;8299026;28;20733;-70
2022/08/22 06:57:55;;;;;;;10.73;6.20;;;;;19.50;96317.00;;;;8299438;28;20305;-69
2022/08/22 07:02:05;;;;;;;12.45;5.70;;;;;19.80;96311.00;;;;8297956;28;20216;-69
2022/08/22 07:06:14;;;;;;;10.32;6.20;;;;;20.10;96322.00;;;;8299101;28;20230;-74
2022/08/22 07:10:45;;;;;;;21.88;4.90;;;;;20.30;96320.00;;;;8296504;28;20230;-73
2022/08/22 07:14:52;;;;;;;12.35;5.07;;;;;20.60;96331.00;;;;8297981;28;20224;-72
2022/08/22 07:19:28;;;;;;;8.18;4.22;;;;;20.70;96333.00;;;;8297722;28;20420;-72
2022/08/22 07:24:02;;;;;;;9.77;4.00;;;;;20.90;96337.00;;;;8297587;28;20304;-73
2022/08/22 07:28:38;;;;;;;5.88;3.72;;;;;21.00;96339.00;;;;8296531;28;20317;-71
2022/08/22 07:33:33;;;;;;;5.25;3.75;;;;;20.80;96335.00;;;;8297014;28;20224;-70
2022/08/22 07:38:00;;;;;;;6.95;3.90;;;;;21.00;96327.00;;;;8295823;28;20232;-70
2022/08/22 07:42:31;;;;;;;10.00;4.20;;;;;21.40;96334.00;;;;8294429;28;20293;-72
2022/08/22 07:47:09;;;;;;;8.82;4.47;;;;;21.90;96334.00;;;;8297268;28;20232;-72
2022/08/22 07:51:46;;;;;;;7.10;3.80;;;;;22.70;96328.00;;;;8296872;28;20213;-71
2022/08/22 07:56:20;;;;;;;7.97;3.80;;;;;23.10;96327.00;;;;8297222;28;20297;-72
2022/08/22 08:00:58;;;;;;;8.80;3.83;;;;;23.70;96322.00;;;;8296670;28;20304;-72
2022/08/22 08:05:01;;;;;;;9.23;2.95;;;;;24.20;96326.00;;;;8296981;28;20217;-72
2022/08/22 08:09:35;;;;;;;4.38;3.10;;;;;24.70;96327.00;;;;8292656;28;20238;-72
2022/08/22 08:13:43;;;;;;;7.75;3.42;;;;;24.80;96324.00;;;;8296033;28;20638;-72
2022/08/22 08:18:08;;;;;;;6.72;2.60;;;;;25.10;96327.00;;;;8297057;28;20305;-72
2022/08/22 08:22:40;;;;;;;3.88;2.42;;;;;25.70;96329.00;;;;8296718;28;20225;-72
2022/08/22 08:31:55;;;;;;;8.68;2.90;;;;;25.60;96335.00;;;;8295529;28;20690;-74
2022/08/22 08:36:48;;;;;;;6.40;2.70;;;;;25.50;96326.00;;;;8296524;28;20240;-73
2022/08/22 08:46:41;;;;;;;3.05;2.53;;;;;26.10;96325.00;;;;8195878;28;20291;-73
2022/08/22 08:51:28;;;;;;;5.38;2.50;;;;;26.60;96331.00;;;;8295675;28;20361;-73
2022/08/22 08:55:59;;;;;;;3.72;2.15;;;;;26.50;96322.00;;;;8290787;28;20320;-74
2022/08/22 09:00:48;;;;;;;10.38;2.97;;;;;26.50;96336.00;;;;8292975;28;20622;-74
2022/08/22 09:05:31;;;;;;;4.82;2.10;;;;;26.40;96324.00;;;;8294855;28;20666;-72
2022/08/22 09:10:16;;;;;;;8.43;2.80;;;;;26.30;96327.00;;;;8294912;28;20553;-75
2022/08/22 09:14:57;;;;;;;3.40;2.30;;;;;26.40;96323.00;;;;8294200;28;20668;-76
2022/08/22 09:19:41;;;;;;;4.15;2.05;;;;;26.40;96329.00;;;;8222315;28;20222;-79
2022/08/22 09:24:22;;;;;;;4.70;2.45;;;;;26.60;96345.00;;;;8293310;28;20634;-77
2022/08/22 09:29:20;;;;;;;4.30;2.50;;;;;27.30;96335.00;;;;8294076;28;20210;-76
2022/08/22 09:33:45;;;;;;;5.15;2.72;;;;;27.60;96333.00;;;;8294254;28;20222;-74
2022/08/22 09:38:29;;;;;;;3.85;2.00;;;;;27.40;96332.00;;;;8295010;28;20237;-85
2022/08/22 09:42:41;;;;;;;2.97;1.88;;;;;27.00;96345.00;;;;8294079;28;20249;-82
2022/08/22 09:47:14;;;;;;;3.58;1.92;;;;;26.40;96343.00;;;;8294472;28;20272;-83
2022/08/22 09:51:38;;;;;;;2.25;1.90;;;;;25.90;96336.00;;;;8293298;28;20226;-81
2022/08/22 09:56:07;;;;;;;7.63;2.10;;;;;25.40;96343.00;;;;8299791;28;20296;-81
2022/08/22 10:00:46;;;;;;;2.65;2.13;;;;;25.20;96351.00;;;;8300122;28;20749;-79
2022/08/22 10:05:23;;;;;;;5.40;2.50;;;;;25.30;96351.00;;;;8299490;28;20226;-79
2022/08/22 10:10:02;;;;;;;5.10;2.17;;;;;25.20;96357.00;;;;8300399;28;20229;-79
2022/08/22 10:14:30;;;;;;;7.18;2.28;;;;;25.30;96352.00;;;;8298828;28;20301;-78
2022/08/22 10:19:10;;;;;;;5.72;2.25;;;;;26.00;96355.00;;;;8298532;28;20316;-78
2022/08/22 10:23:51;;;;;;;4.30;2.72;;;;;27.10;96348.00;;;;8298576;28;20230;-79
2022/08/22 10:28:27;;;;;;;4.28;2.72;;;;;27.30;96356.00;;;;8298715;28;20249;-77
2022/08/22 10:33:02;;;;;;;5.32;2.60;;;;;27.10;96357.00;;;;8295646;28;20643;-77
2022/08/22 10:37:37;;;;;;;3.03;2.53;;;;;26.90;96354.00;;;;8296646;28;20222;-76
2022/08/22 10:42:12;;;;;;;5.57;2.53;;;;;27.50;96348.00;;;;8297391;28;20360;-76
2022/08/22 10:46:50;;;;;;;3.38;2.30;;;;;28.20;96352.00;;;;8298191;28;20571;-75
2022/08/22 10:51:29;;;;;;;3.67;2.30;;;;;28.90;96357.00;;;;8297859;28;20648;-76
2022/08/22 10:56:08;;;;;;;3.08;2.30;;;;;29.20;96351.00;;;;8297334;28;20234;-75
2022/08/22 11:00:45;;;;;;;5.45;2.63;;;;;29.40;96357.00;;;;8296639;28;20230;-75
2022/08/22 11:05:31;;;;;;;5.20;2.88;;;;;28.90;96361.00;;;;8296805;28;20268;-77
2022/08/22 11:10:21;;;;;;;2.90;2.50;;;;;28.10;96357.00;;;;8292718;28;20616;-77
2022/08/22 11:15:02;;;;;;;3.45;2.60;;;;;27.50;96361.00;;;;8297535;28;20572;-78
2022/08/22 11:19:43;;;;;;;6.35;2.45;;;;;27.90;96362.00;;;;8296734;28;20241;-79
2022/08/22 11:24:17;;;;;;;5.45;2.30;;;;;27.60;96357.00;;;;8297866;28;20305;-76
2022/08/22 11:29:08;;;;;;;5.72;2.50;;;;;28.00;96344.00;;;;8297123;28;20218;-76
2022/08/22 11:38:57;;;;;;;3.17;2.35;;;;;27.70;96352.00;;;;8297480;28;20237;-76
2022/08/22 11:43:10;;;;;;;4.03;2.20;;;;;28.10;96361.00;;;;8297767;28;20237;-76
2022/08/22 11:47:45;;;;;;;3.33;2.17;;;;;28.20;96347.00;;;;8297157;28;20248;-76
2022/08/22 11:52:25;;;;;;;5.43;2.40;;;;;28.30;96346.00;;;;8296977;28;20217;-77
2022/08/22 11:56:56;;;;;;;2.15;1.92;;;;;28.40;96342.00;;;;8297663;28;20221;-76
2022/08/22 12:01:36;;;;;;;2.47;2.00;;;;;27.90;96344.00;;;;8296388;28;20694;-76
2022/08/22 12:06:08;;;;;;;6.15;2.42;;;;;27.70;96342.00;;;;8296194;28;20222;-76
2022/08/22 12:10:48;;;;;;;3.95;2.38;;;;;27.60;96336.00;;;;8296368;28;20642;-76
2022/08/22 12:15:25;;;;;;;8.05;2.55;;;;;27.70;96331.00;;;;8296509;28;20505;-75
2022/08/22 12:20:07;;;;;;;4.70;2.10;;;;;27.70;96331.00;;;;8263159;28;20249;-75
2022/08/22 12:24:51;;;;;;;5.85;2.28;;;;;28.10;96332.00;;;;8263235;28;20640;-75
2022/08/22 12:29:26;;;;;;;4.65;2.00;;;;;28.40;96320.00;;;;8263049;28;20263;-75
2022/08/22 12:34:06;;;;;;;4.38;1.90;;;;;28.60;96317.00;;;;8263724;28;20688;-74
2022/08/22 12:38:35;;;;;;;2.97;1.70;;;;;28.80;96308.00;;;;8254909;28;20223;-74
2022/08/22 12:43:14;;;;;;;3.42;1.70;;;;;28.50;96298.00;;;;8263508;28;20395;-74
2022/08/22 12:47:36;;;;;;;1.70;1.60;;;;;28.20;96298.00;;;;8261873;28;20222;-74
2022/08/22 12:52:08;;;;;;;4.03;2.05;;;;;27.90;96292.00;;;;8263112;28;20273;-74
2022/08/22 12:56:28;;;;;;;1.90;1.55;;;;;27.80;96293.00;;;;8262080;28;20226;-74
2022/08/22 13:00:43;;;;;;;2.35;1.88;;;;;27.60;96283.00;;;;8262824;28;20309;-74
2022/08/22 13:05:17;;;;;;;3.05;2.08;;;;;27.70;96279.00;;;;8262387;28;20223;-75
2022/08/22 13:09:51;;;;;;;2.83;1.85;;;;;27.90;96278.00;;;;8262397;28;20218;-75
2022/08/22 13:13:59;;;;;;;3.42;1.90;;;;;28.10;96271.00;;;;8262305;28;20219;-75
2022/08/22 13:18:06;;;;;;;6.45;2.30;;;;;28.20;96271.00;;;;8282575;28;20309;-75
2022/08/22 13:22:41;;;;;;;4.78;2.00;;;;;28.40;96271.00;;;;8294230;28;20651;-75
2022/08/22 13:27:15;;;;;;;4.40;2.00;;;;;28.50;96274.00;;;;8293799;28;20275;-75
2022/08/22 13:31:53;;;;;;;4.13;1.98;;;;;28.50;96269.00;;;;8285221;28;20229;-75
2022/08/22 13:36:15;;;;;;;2.33;1.92;;;;;28.50;96272.00;;;;8295026;28;20640;-75
2022/08/22 13:40:50;;;;;;;2.13;2.00;;;;;28.60;96273.00;;;;8288105;28;20300;-72
2022/08/22 13:45:26;;;;;;;4.07;1.88;;;;;28.60;96276.00;;;;8293625;28;20249;-72
2022/08/22 13:50:06;;;;;;;5.10;2.03;;;;;28.40;96266.00;;;;8292817;28;20310;-73
2022/08/22 13:54:43;;;;;;;2.63;1.85;;;;;28.50;96275.00;;;;8293910;28;20289;-74
2022/08/22 13:59:14;;;;;;;3.03;1.80;;;;;28.70;96268.00;;;;8291611;28;20666;-77
2022/08/22 14:03:50;;;;;;;3.47;1.90;;;;;29.00;96273.00;;;;8293565;28;20229;-84
2022/08/22 14:08:30;;;;;;;4.35;2.10;;;;;28.70;96273.00;;;;8294283;28;20620;-77
2022/08/22 14:13:22;;;;;;;6.32;1.98;;;;;28.10;96278.00;;;;8291879;28;20218;-76
2022/08/22 14:22:53;;;;;;;2.72;1.80;;;;;27.20;96269.00;;;;8292402;28;20236;-74
2022/08/22 14:27:42;;;;;;;5.70;1.77;;;;;27.20;96272.00;;;;8293921;28;20254;-75
2022/08/22 14:32:04;;;;;;;4.50;2.13;;;;;27.40;96268.00;;;;8160131;29;20231;-75
2022/08/22 14:36:37;;;;;;;4.93;1.92;;;;;27.20;96271.00;;;;8159385;29;20228;-75
2022/08/22 14:41:14;;;;;;;3.45;1.60;;;;;27.20;96271.00;;;;8169012;29;20232;-77
2022/08/22 14:45:55;;;;;;;3.10;1.70;;;;;27.20;96268.00;;;;8165893;29;20221;-77
2022/08/22 14:55:30;;;;;;;1.70;1.60;;;;;27.00;96259.00;;;;8298981;28;20218;-81
2022/08/22 15:00:10;;;;;;;2.40;1.73;;;;;27.20;96262.00;;;;8298889;28;20694;-86
2022/08/22 15:04:49;;;;;;;6.03;2.25;;;;;27.30;96258.00;;;;8298878;28;20245;-86
2022/08/22 15:09:26;;;;;;;4.05;2.10;;;;;27.30;96261.00;;;;8297829;28;20218;-85
2022/08/22 15:13:59;;;;;;;3.72;2.13;;;;;27.30;96261.00;;;;8298468;28;20379;-86
2022/08/22 15:23:22;;;;;;;5.32;2.00;;;;;27.40;96262.00;;;;8298283;28;20348;-91
2022/08/22 15:27:59;;;;;;;10.60;2.53;;;;;27.20;96257.00;;;;8298320;28;20236;-92
2022/08/22 15:32:39;;;;;;;5.28;1.98;;;;;27.30;96259.00;;;;8298382;28;20241;-91
2022/08/22 15:37:14;;;;;;;5.10;2.05;;;;;27.40;96263.00;;;;8295056;28;20549;-91
2022/08/22 15:41:51;;;;;;;2.10;1.70;;;;;27.40;96253.00;;;;8295167;28;20217;-91
2022/08/22 15:46:32;;;;;;;2.28;1.70;;;;;27.40;96253.00;;;;8297938;28;20214;-84
2022/08/22 15:51:01;;;;;;;2.22;1.98;;;;;27.30;96256.00;;;;8296984;28;20213;-78
2022/08/22 15:55:35;;;;;;;2.63;1.75;;;;;27.30;96260.00;;;;8297206;28;20222;-84
2022/08/22 16:00:26;;;;;;;3.58;1.73;;;;;27.30;96265.00;;;;8297140;28;20300;-89
2022/08/22 16:04:51;;;;;;;5.10;1.90;;;;;26.90;96259.00;;;;8298034;28;20263;-87
2022/08/22 16:09:35;;;;;;;2.97;2.00;;;;;26.70;96264.00;;;;8296366;28;20226;-88
2022/08/22 16:14:16;;;;;;;2.97;1.88;;;;;26.40;96268.00;;;;8296198;28;20305;-83
2022/08/22 16:24:11;;;;;;;2.28;2.00;;;;;25.90;96277.00;;;;8296724;28;20662;-82
2022/08/22 16:29:01;;;;;;;3.85;2.08;;;;;25.80;96282.00;;;;8295719;28;20297;-83
2022/08/22 16:33:41;;;;;;;4.00;1.80;;;;;25.70;96275.00;;;;8296165;28;20305;-81
2022/08/22 16:38:21;;;;;;;2.15;1.58;;;;;25.80;96278.00;;;;8295469;28;20703;-82
2022/08/22 16:42:51;;;;;;;3.33;1.85;;;;;25.90;96277.00;;;;8296337;28;20233;-80
2022/08/22 16:47:39;;;;;;;3.83;2.15;;;;;25.90;96282.00;;;;8295219;28;20241;-81
2022/08/22 16:52:20;;;;;;;2.38;1.77;;;;;25.80;96284.00;;;;8290818;28;20297;-80
2022/08/22 16:57:07;;;;;;;2.33;1.83;;;;;25.70;96284.00;;;;8291058;28;20669;-79
2022/08/22 17:01:50;;;;;;;2.97;1.98;;;;;25.60;96292.00;;;;8293691;28;20237;-81
2022/08/22 17:06:22;;;;;;;3.17;2.22;;;;;25.40;96285.00;;;;8290592;28;20614;-82
2022/08/22 17:10:57;;;;;;;2.20;1.83;;;;;25.40;96286.00;;;;8294614;28;20226;-82
2022/08/22 17:15:37;;;;;;;4.05;1.83;;;;;25.40;96294.00;;;;8283047;28;20293;-78
2022/08/22 17:20:04;;;;;;;2.72;2.33;;;;;25.20;96297.00;;;;8295717;28;20241;-85
2022/08/22 17:24:33;;;;;;;4.05;2.10;;;;;24.90;96301.00;;;;8294657;28;20316;-84
2022/08/22 17:29:11;;;;;;;3.67;2.17;;;;;24.60;96304.00;;;;8292116;28;20549;-74
2022/08/22 17:33:54;;;;;;;3.63;2.30;;;;;24.40;96303.00;;;;8292051;28;20224;-74
2022/08/22 17:38:22;;;;;;;3.80;2.35;;;;;24.20;96302.00;;;;8293102;28;20301;-77
2022/08/22 17:43:13;;;;;;;3.55;2.53;;;;;24.00;96302.00;;;;8294274;28;20251;-76
2022/08/22 17:47:44;;;;;;;4.78;2.40;;;;;23.70;96310.00;;;;8160955;29;20406;-80
2022/08/22 17:52:15;;;;;;;3.08;2.40;;;;;23.60;96319.00;;;;8162403;29;20297;-79
2022/08/22 18:01:53;;;;;;;10.48;2.65;;;;;23.20;96315.00;;;;8293627;28;20228;-73
2022/08/22 18:06:27;;;;;;;4.13;2.25;;;;;23.00;96321.00;;;;8293982;28;20309;-80
2022/08/22 18:11:11;;;;;;;3.10;2.63;;;;;22.90;96323.00;;;;8294456;28;20712;-79
2022/08/22 18:15:33;;;;;;;5.53;2.97;;;;;22.80;96317.00;;;;8297885;28;20228;-79
2022/08/22 18:20:07;;;;;;;3.55;2.85;;;;;22.70;96332.00;;;;8267001;28;20218;-79
2022/08/22 18:24:40;;;;;;;5.35;2.80;;;;;22.50;96321.00;;;;8267298;28;20321;-77
2022/08/22 18:29:20;;;;;;;5.18;2.70;;;;;22.30;96324.00;;;;8267286;28;20225;-81
2022/08/22 18:34:00;;;;;;;4.97;2.95;;;;;22.20;96317.00;;;;8266202;28;20648;-82
2022/08/22 18:38:35;;;;;;;5.78;3.50;;;;;22.10;96327.00;;;;8262623;28;20723;-79
2022/08/22 18:43:09;;;;;;;5.25;2.80;;;;;22.00;96328.00;;;;8266059;28;20230;-79
2022/08/22 18:47:54;;;;;;;10.05;3.35;;;;;21.80;96339.00;;;;8260489;28;20659;-78
2022/08/22 18:52:38;;;;;;;4.63;3.22;;;;;21.80;96344.00;;;;8256237;28;20218;-79
2022/08/22 19:02:10;;;;;;;7.22;3.47;;;;;21.50;96356.00;;;;8265035;28;20223;-78
2022/08/22 19:06:53;;;;;;;3.85;3.22;;;;;21.30;96352.00;;;;8265920;28;26182;-77
2022/08/22 19:11:30;;;;;;;6.90;4.00;;;;;21.20;96357.00;;;;8266013;28;20759;-77
2022/08/22 19:16:06;;;;;;;3.92;3.20;;;;;21.20;96360.00;;;;8262198;28;20716;-77
2022/08/22 19:25:18;;;;;;;8.48;3.75;;;;;21.00;96373.00;;;;8296700;28;20232;-76
2022/08/22 19:29:54;;;;;;;7.70;3.75;;;;;20.90;96371.00;;;;8298251;28;20225;-73
2022/08/22 19:34:24;;;;;;;7.90;4.00;;;;;20.80;96368.00;;;;8297261;28;20679;-74
2022/08/22 19:39:06;;;;;;;10.77;4.43;;;;;20.80;96371.00;;;;8298363;28;20218;-74
2022/08/22 19:43:43;;;;;;;4.70;3.97;;;;;20.70;96368.00;;;;8297966;28;20222;-75
2022/08/22 19:48:23;;;;;;;6.13;4.15;;;;;20.70;96370.00;;;;8297970;28;20309;-76
2022/08/22 19:52:38;;;;;;;5.15;4.03;;;;;20.70;96375.00;;;;8296936;28;20293;-73
2022/08/22 19:57:05;;;;;;;5.38;4.00;;;;;20.60;96382.00;;;;8298463;28;20226;-75
2022/08/22 20:01:48;;;;;;;5.40;3.90;;;;;20.40;96378.00;;;;8295045;28;20593;-74
2022/08/22 20:06:25;;;;;;;7.82;4.05;;;;;20.30;96367.00;;;;8297049;28;20220;-74
2022/08/22 20:11:01;;;;;;;12.15;4.85;;;;;20.20;96365.00;;;;8297279;28;20301;-73
2022/08/22 20:15:30;;;;;;;6.20;4.75;;;;;20.10;96366.00;;;;8296725;28;20301;-74
2022/08/22 20:25:24;;;;;;;5.90;3.75;;;;;19.80;96361.00;;;;8296939;28;20283;-75
2022/08/22 20:30:02;;;;;;;6.22;4.05;;;;;19.70;96366.00;;;;8296222;28;20213;-76
2022/08/22 20:34:11;;;;;;;8.60;4.55;;;;;19.50;96366.00;;;;8296352;28;20300;-75
2022/08/22 20:38:44;;;;;;;8.13;4.53;;;;;19.30;96367.00;;;;8295869;28;20703;-76
2022/08/22 20:43:25;;;;;;;5.65;4.30;;;;;19.20;96360.00;;;;8296841;28;20300;-76
2022/08/22 20:47:56;;;;;;;6.22;4.57;;;;;19.10;96358.00;;;;8295734;28;20604;-75
2022/08/22 20:52:31;;;;;;;5.55;4.45;;;;;18.90;96360.00;;;;8295327;28;20304;-74
2022/08/22 20:57:14;;;;;;;9.48;4.88;;;;;18.70;96355.00;;;;8296258;28;20320;-76
2022/08/22 21:01:19;;;;;;;9.70;4.38;;;;;18.60;96359.00;;;;8296019;28;20301;-77
2022/08/22 21:05:53;;;;;;;8.27;4.88;;;;;18.60;96364.00;;;;8295429;28;20317;-76
2022/08/22 21:14:26;;;;;;;5.47;4.22;;;;;18.30;96348.00;;;;8295629;28;20218;-75
2022/08/22 21:18:33;;;;;;;5.75;4.32;;;;;18.30;96354.00;;;;8294408;28;20226;-75
2022/08/22 21:22:36;;;;;;;9.68;5.03;;;;;18.20;96350.00;;;;8295348;28;20234;-77
2022/08/22 21:26:46;;;;;;;8.13;4.95;;;;;18.10;96354.00;;;;8294845;28;20252;-77
2022/08/22 21:30:49;;;;;;;6.13;4.90;;;;;18.10;96343.00;;;;8295415;28;20325;-76
2022/08/22 21:35:29;;;;;;;7.57;4.85;;;;;18.00;96342.00;;;;8295557;28;20301;-75
2022/08/22 21:39:36;;;;;;;10.88;4.72;;;;;18.00;96343.00;;;;8294248;28;20230;-75
2022/08/22 21:44:16;;;;;;;11.95;4.72;;;;;17.90;96340.00;;;;8295261;28;20320;-76
2022/08/22 21:48:36;;;;;;;5.75;4.65;;;;;17.90;96341.00;;;;8296706;28;20308;-76
2022/08/22 21:53:10;;;;;;;5.63;5.03;;;;;17.80;96334.00;;;;8301630;28;20225;-77
2022/08/22 21:57:23;;;;;;;9.13;5.20;;;;;17.80;96343.00;;;;8300734;28;20213;-76
2022/08/22 22:01:50;;;;;;;10.10;5.90;;;;;17.70;96341.00;;;;8302087;28;20232;-76
2022/08/22 22:05:57;;;;;;;10.48;4.50;;;;;17.70;96340.00;;;;8300809;28;20686;-76
2022/08/22 22:10:02;;;;;;;6.40;4.68;;;;;17.60;96336.00;;;;8301467;28;20231;-76
2022/08/22 22:14:36;;;;;;;6.63;5.45;;;;;17.50;96334.00;;;;8300939;28;20224;-76
2022/08/22 22:18:40;;;;;;;5.57;4.65;;;;;17.50;96328.00;;;;8300512;28;20236;-75
2022/08/22 22:23:17;;;;;;;6.53;5.15;;;;;17.40;96336.00;;;;8300484;28;20691;-75
2022/08/22 22:27:22;;;;;;;5.65;5.07;;;;;17.40;96337.00;;;;8300764;28;20300;-76
2022/08/22 22:31:56;;;;;;;5.40;4.40;;;;;17.30;96343.00;;;;8299802;28;20218;-77
2022/08/22 22:36:04;;;;;;;8.20;4.90;;;;;17.10;96348.00;;;;8300269;28;20218;-77
2022/08/22 22:40:09;;;;;;;8.95;5.22;;;;;17.10;96340.00;;;;8299665;28;20292;-76
2022/08/22 22:44:44;;;;;;;5.28;4.78;;;;;16.90;96343.00;;;;8300039;28;20226;-76
2022/08/22 22:48:49;;;;;;;5.10;4.57;;;;;16.90;96335.00;;;;8300047;28;20214;-76
2022/08/22 22:52:52;;;;;;;6.97;4.97;;;;;16.80;96337.00;;;;8299554;28;20233;-77
2022/08/22 22:57:26;;;;;;;8.40;5.03;;;;;16.70;96339.00;;;;8299663;28;20244;-76
2022/08/22 23:01:32;;;;;;;10.48;5.60;;;;;16.60;96337.00;;;;8299145;28;20217;-76
2022/08/22 23:05:35;;;;;;;5.93;5.07;;;;;16.50;96337.00;;;;8299282;28;20222;-76
2022/08/22 23:10:12;;;;;;;6.00;5.40;;;;;16.40;96341.00;;;;8299168;28;20723;-75
2022/08/22 23:14:15;;;;;;;7.80;5.18;;;;;16.30;96335.00;;;;8299126;28;20674;-76
2022/08/22 23:18:20;;;;;;;9.82;5.53;;;;;16.20;96341.00;;;;8298031;28;20308;-75
2022/08/22 23:22:32;;;;;;;8.73;5.18;;;;;16.10;96344.00;;;;8299116;28;20281;-77
2022/08/22 23:26:36;;;;;;;8.32;5.30;;;;;16.00;96337.00;;;;8298265;28;20291;-75